createdAt,value
2022-12-26T00:01:01.712Z,9.90
2022-12-26T00:03:30.495Z,9.90
2022-12-26T00:05:57.386Z,9.90
2022-12-26T00:08:24.169Z,9.90
2022-12-26T00:10:50.911Z,10.00
2022-12-26T00:13:40.307Z,10.00
2022-12-26T00:16:20.284Z,10.00
2022-12-26T00:18:48.094Z,10.00
2022-12-26T00:21:16.838Z,10.10
2022-12-26T00:23:44.381Z,10.10
2022-12-26T00:26:20.754Z,10.20
2022-12-26T00:28:48.513Z,10.10
2022-12-26T00:31:22.653Z,10.10
2022-12-26T00:33:49.711Z,10.10
2022-12-26T00:36:23.902Z,10.20
2022-12-26T00:38:51.713Z,10.20
2022-12-26T00:41:20.165Z,10.20
2022-12-26T00:43:47.238Z,10.20
2022-12-26T00:46:17.922Z,10.20
2022-12-26T00:48:45.326Z,10.20
2022-12-26T00:51:13.146Z,10.20
2022-12-26T00:53:40.517Z,10.20
2022-12-26T00:56:09.902Z,10.20
2022-12-26T00:58:37.331Z,10.20
2022-12-26T01:01:15.778Z,10.20
2022-12-26T01:03:45.064Z,10.20
2022-12-26T01:06:12.807Z,10.20
2022-12-26T01:08:39.959Z,10.20
2022-12-26T01:11:10.758Z,10.30
2022-12-26T01:13:38.539Z,10.20
2022-12-26T01:16:07.290Z,10.20
2022-12-26T01:18:35.116Z,10.30
2022-12-26T01:21:10.217Z,10.20
2022-12-26T01:23:36.953Z,10.20
2022-12-26T01:26:15.825Z,10.20
2022-12-26T01:28:46.814Z,10.20
2022-12-26T01:31:13.656Z,10.20
2022-12-26T01:33:40.436Z,10.20
2022-12-26T01:36:07.429Z,10.10
2022-12-26T01:38:34.420Z,10.20
2022-12-26T01:41:16.574Z,10.10
2022-12-26T01:43:57.826Z,10.20
2022-12-26T01:46:45.086Z,10.20
2022-12-26T01:49:32.588Z,10.20
2022-12-26T01:52:08.563Z,10.20
2022-12-26T01:54:43.082Z,10.20
2022-12-26T01:57:17.657Z,10.20
2022-12-26T01:59:47.604Z,10.20
2022-12-26T02:02:16.628Z,10.20
2022-12-26T02:05:09.327Z,10.20
2022-12-26T02:07:41.959Z,10.10
2022-12-26T02:10:16.753Z,10.10
2022-12-26T02:12:45.179Z,10.10
2022-12-26T02:15:17.078Z,10.20
2022-12-26T02:17:44.822Z,10.10
2022-12-26T02:20:28.657Z,10.10
2022-12-26T02:23:13.798Z,10.10
2022-12-26T02:26:13.745Z,10.10
2022-12-26T02:29:24.479Z,10.10
2022-12-26T02:32:09.357Z,10.20
2022-12-26T02:35:06.666Z,10.10
2022-12-26T02:37:53.641Z,10.10
2022-12-26T02:40:35.368Z,10.20
2022-12-26T02:43:04.820Z,10.20
2022-12-26T02:46:22.873Z,10.10
2022-12-26T02:48:56.482Z,10.10
2022-12-26T02:52:19.607Z,10.10
2022-12-26T02:55:35.697Z,10.10
2022-12-26T02:58:43.740Z,10.10
2022-12-26T03:01:57.812Z,10.10
2022-12-26T03:04:48.651Z,10.10
2022-12-26T03:07:43.348Z,10.10
2022-12-26T03:10:38.772Z,10.10
2022-12-26T03:13:16.979Z,10.10
2022-12-26T03:16:30.364Z,10.10
2022-12-26T03:19:06.159Z,10.00
2022-12-26T03:21:42.749Z,10.00
2022-12-26T03:24:14.216Z,10.00
2022-12-26T03:26:51.753Z,10.00
2022-12-26T03:29:40.946Z,10.00
2022-12-26T03:32:12.306Z,9.90
2022-12-26T03:34:44.703Z,9.90
2022-12-26T03:37:50.427Z,9.90
2022-12-26T03:40:56.621Z,9.90
2022-12-26T03:44:42.199Z,9.90
2022-12-26T03:48:04.212Z,9.80
2022-12-26T03:50:52.712Z,9.80
2022-12-26T03:54:31.811Z,9.80
2022-12-26T03:57:29.487Z,9.80
2022-12-26T04:00:29.491Z,9.80
2022-12-26T04:03:24.859Z,9.80
2022-12-26T04:06:13.394Z,9.80
2022-12-26T04:09:20.397Z,9.80
2022-12-26T04:12:05.898Z,9.70
2022-12-26T04:15:12.069Z,9.70
2022-12-26T04:18:01.118Z,9.70
2022-12-26T04:21:02.499Z,9.70
2022-12-26T04:24:03.407Z,9.70
2022-12-26T04:26:59.104Z,9.70
2022-12-26T04:29:44.676Z,9.70
2022-12-26T04:32:39.387Z,9.70
2022-12-26T04:35:38.722Z,9.60
2022-12-26T04:38:25.822Z,9.60
2022-12-26T04:41:18.599Z,9.60
2022-12-26T04:44:06.052Z,9.60
2022-12-26T04:46:46.374Z,9.60
2022-12-26T04:49:36.648Z,9.60
2022-12-26T04:52:08.935Z,9.50
2022-12-26T04:54:35.848Z,9.60
2022-12-26T04:57:03.386Z,9.60
2022-12-26T04:59:30.297Z,9.50
2022-12-26T05:02:15.790Z,9.50
2022-12-26T05:05:01.415Z,9.50
2022-12-26T05:07:52.544Z,9.50
2022-12-26T05:10:22.420Z,9.50
2022-12-26T05:12:49.882Z,9.50
2022-12-26T05:15:16.741Z,9.50
2022-12-26T05:18:02.115Z,9.50
2022-12-26T05:20:47.351Z,9.50
2022-12-26T05:23:43.851Z,9.60
2022-12-26T05:26:41.936Z,9.60
2022-12-26T05:29:09.037Z,9.60
2022-12-26T05:31:37.063Z,9.60
2022-12-26T05:34:06.825Z,9.60
2022-12-26T05:36:42.094Z,9.60
2022-12-26T05:39:10.057Z,9.60
2022-12-26T05:41:38.701Z,9.60
2022-12-26T05:44:06.560Z,9.60
2022-12-26T05:46:34.466Z,9.60
2022-12-26T05:49:01.740Z,9.60
2022-12-26T05:51:28.499Z,9.60
2022-12-26T05:53:55.376Z,9.60
2022-12-26T05:56:22.579Z,9.60
2022-12-26T05:58:59.354Z,9.60
2022-12-26T06:01:28.356Z,9.60
2022-12-26T06:03:59.604Z,9.50
2022-12-26T06:06:27.256Z,9.50
2022-12-26T06:08:56.268Z,9.50
2022-12-26T06:11:26.346Z,9.50
2022-12-26T06:13:53.505Z,9.50
2022-12-26T06:16:20.664Z,9.50
2022-12-26T06:18:48.661Z,9.50
2022-12-26T06:21:19.367Z,9.40
2022-12-26T06:23:46.443Z,9.40
2022-12-26T06:26:14.512Z,9.40
2022-12-26T06:28:43.163Z,9.40
2022-12-26T06:31:15.944Z,9.40
2022-12-26T06:33:42.940Z,9.40
2022-12-26T06:36:17.063Z,9.40
2022-12-26T06:38:44.798Z,9.30
2022-12-26T06:41:15.682Z,9.30
2022-12-26T06:43:43.269Z,9.30
2022-12-26T06:46:16.823Z,9.20
2022-12-26T06:48:44.087Z,9.10
2022-12-26T06:51:20.819Z,9.00
2022-12-26T06:53:49.072Z,8.90
2022-12-26T06:56:25.999Z,8.90
2022-12-26T06:59:01.783Z,8.90
2022-12-26T07:01:32.302Z,8.80
2022-12-26T07:04:00.155Z,8.70
2022-12-26T07:06:33.683Z,8.70
2022-12-26T07:09:07.509Z,8.70
2022-12-26T07:11:38.309Z,8.60
2022-12-26T07:14:06.265Z,8.60
2022-12-26T07:16:38.648Z,8.60
2022-12-26T07:19:05.951Z,8.60
2022-12-26T07:21:39.799Z,8.60
2022-12-26T07:24:08.892Z,8.60
2022-12-26T07:26:35.786Z,8.50
2022-12-26T07:29:02.653Z,8.50
2022-12-26T07:31:29.548Z,8.50
2022-12-26T07:33:56.987Z,8.50
2022-12-26T07:36:25.196Z,8.50
2022-12-26T07:38:52.279Z,8.40
2022-12-26T07:41:38.045Z,8.40
2022-12-26T07:44:06.100Z,8.30
2022-12-26T07:46:33.979Z,8.30
2022-12-26T07:49:01.232Z,8.30
2022-12-26T07:51:28.461Z,8.20
2022-12-26T07:53:55.329Z,8.20
2022-12-26T07:56:22.245Z,8.30
2022-12-26T07:58:50.461Z,8.30
2022-12-26T08:01:18.102Z,8.30
2022-12-26T08:03:45.291Z,8.30
2022-12-26T08:06:12.464Z,8.30
2022-12-26T08:08:40.340Z,8.40
2022-12-26T08:11:17.970Z,8.40
2022-12-26T08:13:44.967Z,8.40
2022-12-26T08:16:14.640Z,8.50
2022-12-26T08:18:41.861Z,8.50
2022-12-26T08:21:09.053Z,8.50
2022-12-26T08:23:35.866Z,8.60
2022-12-26T08:26:12.962Z,8.60
2022-12-26T08:28:40.090Z,8.70
2022-12-26T08:31:09.759Z,8.70
2022-12-26T08:33:37.111Z,8.70
2022-12-26T08:36:11.993Z,8.70
2022-12-26T08:38:40.696Z,8.80
2022-12-26T08:41:07.973Z,8.80
2022-12-26T08:44:16.100Z,8.80
2022-12-26T08:46:23.022Z,8.90
2022-12-26T08:48:51.881Z,8.90
2022-12-26T08:51:24.969Z,8.90
2022-12-26T08:53:54.284Z,9.00
2022-12-26T08:56:25.933Z,8.90
2022-12-26T08:58:53.644Z,8.90
2022-12-26T09:01:25.190Z,9.00
2022-12-26T09:03:58.843Z,9.00
2022-12-26T09:06:26.642Z,9.10
2022-12-26T09:08:54.122Z,9.10
2022-12-26T09:11:28.630Z,9.10
2022-12-26T09:13:58.851Z,9.10
2022-12-26T09:16:35.559Z,9.20
2022-12-26T09:19:05.755Z,9.20
2022-12-26T09:21:33.207Z,9.20
2022-12-26T09:24:03.906Z,9.20
2022-12-26T09:26:31.850Z,9.20
2022-12-26T09:28:59.118Z,9.20
2022-12-26T09:31:29.502Z,9.20
2022-12-26T09:33:56.616Z,9.20
2022-12-26T09:36:28.462Z,9.20
2022-12-26T09:38:57.040Z,9.20
2022-12-26T09:41:48.041Z,9.30
2022-12-26T09:44:36.112Z,9.30
2022-12-26T09:47:33.772Z,9.30
2022-12-26T09:50:24.454Z,9.40
2022-12-26T09:53:17.180Z,9.40
2022-12-26T09:56:23.786Z,9.40
2022-12-26T09:59:13.391Z,9.50
2022-12-26T10:01:40.919Z,9.50
2022-12-26T10:04:25.048Z,9.50
2022-12-26T10:07:32.628Z,9.50
2022-12-26T10:10:20.407Z,9.50
2022-12-26T10:13:06.652Z,9.50
2022-12-26T10:15:50.745Z,9.50
2022-12-26T10:18:45.394Z,9.60
2022-12-26T10:21:34.933Z,9.60
2022-12-26T10:24:22.846Z,9.70
2022-12-26T10:26:57.554Z,9.70
2022-12-26T10:29:33.611Z,9.80
2022-12-26T10:32:12.939Z,9.80
2022-12-26T10:34:46.193Z,9.90
2022-12-26T10:37:33.011Z,9.90
2022-12-26T10:40:24.293Z,9.90
2022-12-26T10:42:56.878Z,9.80
2022-12-26T10:45:36.427Z,9.80
2022-12-26T10:48:04.127Z,9.80
2022-12-26T10:50:34.883Z,9.80
2022-12-26T10:53:07.506Z,9.70
2022-12-26T10:55:35.755Z,9.70
2022-12-26T10:58:27.783Z,9.60
2022-12-26T11:00:54.772Z,9.50
2022-12-26T11:03:22.104Z,9.50
2022-12-26T11:06:07.497Z,9.40
2022-12-26T11:08:51.888Z,9.40
2022-12-26T11:11:25.485Z,9.40
2022-12-26T11:14:02.807Z,9.40
2022-12-26T11:16:37.888Z,9.40
2022-12-26T11:19:05.602Z,9.50
2022-12-26T11:21:33.848Z,9.40
2022-12-26T11:24:20.972Z,9.50
2022-12-26T11:26:48.811Z,9.50
2022-12-26T11:29:23.032Z,9.50
2022-12-26T11:32:02.049Z,9.50
2022-12-26T11:34:45.888Z,9.50
2022-12-26T11:37:44.577Z,9.40
2022-12-26T11:40:22.510Z,9.40
2022-12-26T11:42:56.423Z,9.50
2022-12-26T11:45:29.362Z,9.60
2022-12-26T11:48:01.211Z,9.50
2022-12-26T11:50:31.092Z,9.60
2022-12-26T11:52:57.773Z,9.60
2022-12-26T11:55:29.457Z,9.70
2022-12-26T11:58:18.032Z,9.70
2022-12-26T12:00:50.561Z,9.70
2022-12-26T12:03:49.561Z,9.70
2022-12-26T12:06:31.747Z,9.70
2022-12-26T12:09:49.010Z,9.70
2022-12-26T12:12:45.997Z,9.60
2022-12-26T12:15:54.766Z,9.60
2022-12-26T12:18:50.917Z,9.50
2022-12-26T12:21:54.299Z,9.40
2022-12-26T12:24:27.093Z,9.40
2022-12-26T12:27:38.882Z,9.40
2022-12-26T12:30:23.753Z,9.30
2022-12-26T12:33:17.773Z,9.20
2022-12-26T12:35:44.512Z,9.20
2022-12-26T12:38:28.927Z,9.20
2022-12-26T12:41:23.664Z,9.20
2022-12-26T12:44:36.385Z,9.20
2022-12-26T12:47:11.680Z,9.20
2022-12-26T12:50:03.137Z,9.20
2022-12-26T12:53:06.220Z,9.10
2022-12-26T12:56:10.037Z,9.10
2022-12-26T12:59:10.872Z,9.10
2022-12-26T13:01:47.913Z,9.00
2022-12-26T13:04:37.284Z,9.00
2022-12-26T13:07:12.163Z,9.00
2022-12-26T13:09:54.273Z,9.00
2022-12-26T13:12:28.097Z,8.90
2022-12-26T13:15:02.670Z,8.90
2022-12-26T13:18:02.095Z,8.80
2022-12-26T13:20:41.379Z,8.80
2022-12-26T13:24:01.346Z,8.80
2022-12-26T13:27:15.828Z,8.80
2022-12-26T13:29:48.797Z,8.70
2022-12-26T13:32:24.439Z,8.70
2022-12-26T13:34:54.864Z,8.60
2022-12-26T13:37:39.965Z,8.50
2022-12-26T13:40:19.376Z,8.50
2022-12-26T13:43:10.247Z,8.40
2022-12-26T13:45:43.028Z,8.40
2022-12-26T13:48:18.794Z,8.40
2022-12-26T13:50:57.469Z,8.40
2022-12-26T13:53:42.518Z,8.40
2022-12-26T13:56:45.915Z,8.40
2022-12-26T13:59:38.835Z,8.40
2022-12-26T14:02:58.195Z,8.40
2022-12-26T14:05:34.996Z,8.40
2022-12-26T14:08:01.749Z,8.50
2022-12-26T14:10:47.895Z,8.40
2022-12-26T14:13:49.776Z,8.40
2022-12-26T14:16:30.510Z,8.40
2022-12-26T14:19:19.851Z,8.40
2022-12-26T14:22:04.503Z,8.40
2022-12-26T14:25:03.773Z,8.40
2022-12-26T14:27:57.594Z,8.40
2022-12-26T14:31:06.401Z,8.30
2022-12-26T14:33:40.175Z,8.30
2022-12-26T14:36:55.344Z,8.30
2022-12-26T14:39:36.682Z,8.10
2022-12-26T14:42:24.923Z,8.00
2022-12-26T14:44:58.591Z,7.80
2022-12-26T14:47:48.298Z,7.70
2022-12-26T14:50:52.357Z,7.40
2022-12-26T14:53:24.640Z,7.30
2022-12-26T14:55:57.661Z,7.20
2022-12-26T14:58:31.821Z,7.20
2022-12-26T15:01:10.776Z,7.20
2022-12-26T15:03:44.625Z,7.10
2022-12-26T15:06:20.567Z,7.10
2022-12-26T15:09:18.111Z,7.20
2022-12-26T15:12:15.576Z,7.20
2022-12-26T15:15:14.258Z,7.20
2022-12-26T15:18:16.685Z,7.20
2022-12-26T15:21:18.696Z,7.20
2022-12-26T15:24:52.776Z,7.30
2022-12-26T15:27:59.604Z,7.20
2022-12-26T15:30:52.667Z,7.20
2022-12-26T15:33:38.832Z,7.20
2022-12-26T15:36:28.670Z,7.20
2022-12-26T15:39:35.119Z,7.10
2022-12-26T15:42:19.931Z,7.00
2022-12-26T15:45:26.145Z,6.90
2022-12-26T15:48:26.153Z,6.90
2022-12-26T15:51:10.484Z,6.90
2022-12-26T15:54:20.017Z,6.80
2022-12-26T15:56:55.763Z,6.80
2022-12-26T16:00:08.282Z,6.70
2022-12-26T16:03:01.011Z,6.60
2022-12-26T16:05:49.480Z,6.60
2022-12-26T16:09:01.659Z,6.70
2022-12-26T16:11:57.165Z,6.60
2022-12-26T16:14:35.210Z,6.60
2022-12-26T16:17:14.041Z,6.50
2022-12-26T16:19:50.793Z,6.50
2022-12-26T16:22:47.067Z,6.40
2022-12-26T16:25:22.629Z,6.50
2022-12-26T16:27:53.763Z,6.50
2022-12-26T16:30:27.771Z,6.40
2022-12-26T16:32:55.487Z,6.40
2022-12-26T16:35:37.647Z,6.40
2022-12-26T16:38:08.683Z,6.30
2022-12-26T16:40:49.627Z,6.20
2022-12-26T16:43:19.484Z,6.10
2022-12-26T16:45:50.308Z,6.10
2022-12-26T16:48:21.825Z,6.10
2022-12-26T16:50:59.678Z,6.00
2022-12-26T16:53:35.618Z,6.00
2022-12-26T16:56:32.457Z,6.00
2022-12-26T16:59:17.340Z,6.00
2022-12-26T17:01:57.890Z,6.00
2022-12-26T17:04:28.167Z,6.00
2022-12-26T17:07:07.530Z,5.90
2022-12-26T17:09:49.755Z,6.00
2022-12-26T17:12:31.547Z,5.90
2022-12-26T17:15:01.538Z,5.80
2022-12-26T17:17:34.011Z,5.80
2022-12-26T17:20:22.643Z,5.70
2022-12-26T17:22:51.068Z,5.70
2022-12-26T17:25:17.779Z,5.70
2022-12-26T17:27:45.882Z,5.60
2022-12-26T17:30:32.532Z,5.60
2022-12-26T17:33:11.403Z,5.60
2022-12-26T17:36:32.946Z,5.50
2022-12-26T17:38:29.179Z,5.50
2022-12-26T17:41:00.816Z,5.50
2022-12-26T17:43:31.921Z,5.40
2022-12-26T17:45:59.418Z,5.40
2022-12-26T17:48:27.599Z,5.30
2022-12-26T17:51:00.181Z,5.30
2022-12-26T17:53:33.693Z,5.20
2022-12-26T17:56:08.093Z,5.20
2022-12-26T17:58:35.310Z,5.20
2022-12-26T18:01:02.727Z,5.10
2022-12-26T18:03:29.634Z,5.10
2022-12-26T18:05:56.711Z,5.10
2022-12-26T18:08:35.761Z,5.10
2022-12-26T18:11:06.719Z,5.10
2022-12-26T18:13:34.019Z,5.10
2022-12-26T18:16:01.550Z,5.00
2022-12-26T18:18:38.655Z,5.00
2022-12-26T18:21:09.908Z,5.00
2022-12-26T18:23:37.849Z,5.00
2022-12-26T18:26:12.950Z,5.00
2022-12-26T18:28:40.182Z,4.90
2022-12-26T18:31:08.711Z,4.80
2022-12-26T18:33:35.468Z,4.70
2022-12-26T18:36:07.373Z,4.60
2022-12-26T18:38:35.090Z,4.50
2022-12-26T18:41:02.392Z,4.30
2022-12-26T18:43:29.195Z,4.30
2022-12-26T18:45:56.303Z,4.20
2022-12-26T18:48:23.125Z,4.20
2022-12-26T18:50:49.952Z,4.20
2022-12-26T18:53:17.019Z,4.20
2022-12-26T18:55:43.783Z,4.20
2022-12-26T18:58:12.812Z,4.30
2022-12-26T19:00:39.662Z,4.20
2022-12-26T19:03:06.484Z,4.20
2022-12-26T19:05:34.205Z,4.10
2022-12-26T19:08:02.964Z,3.90
2022-12-26T19:10:34.324Z,3.70
2022-12-26T19:13:05.560Z,3.50
2022-12-26T19:15:35.194Z,3.30
2022-12-26T19:18:03.174Z,3.20
2022-12-26T19:20:30.407Z,3.10
2022-12-26T19:22:57.197Z,3.00
2022-12-26T19:25:26.427Z,2.90
2022-12-26T19:27:54.381Z,2.70
2022-12-26T19:30:22.896Z,2.60
2022-12-26T19:32:51.283Z,2.50
2022-12-26T19:35:18.652Z,2.50
2022-12-26T19:37:45.826Z,2.40
2022-12-26T19:40:18.387Z,2.40
2022-12-26T19:42:48.367Z,2.30
2022-12-26T19:45:15.369Z,2.30
2022-12-26T19:47:42.269Z,2.20
2022-12-26T19:50:11.589Z,2.20
2022-12-26T19:52:39.484Z,2.20
2022-12-26T19:55:08.325Z,2.20
2022-12-26T19:57:35.195Z,2.20
2022-12-26T20:00:02.384Z,2.10
2022-12-26T20:02:29.311Z,2.00
2022-12-26T20:04:56.200Z,2.00
2022-12-26T20:07:23.016Z,2.00
2022-12-26T20:09:49.775Z,1.90
2022-12-26T20:12:16.513Z,1.90
2022-12-26T20:14:43.253Z,1.80
2022-12-26T20:17:12.231Z,1.80
2022-12-26T20:19:39.312Z,1.80
2022-12-26T20:22:07.269Z,1.70
2022-12-26T20:24:34.701Z,1.60
2022-12-26T20:27:03.164Z,1.60
2022-12-26T20:29:31.056Z,1.60
2022-12-26T20:31:58.844Z,1.60
2022-12-26T20:34:25.928Z,1.50
2022-12-26T20:36:52.762Z,1.50
2022-12-26T20:39:21.156Z,1.50
2022-12-26T20:41:48.202Z,1.50
2022-12-26T20:44:17.091Z,1.50
2022-12-26T20:46:45.583Z,1.50
2022-12-26T20:49:12.618Z,1.40
2022-12-26T20:51:42.251Z,1.40
2022-12-26T20:54:12.704Z,1.40
2022-12-26T20:56:40.400Z,1.50
2022-12-26T20:59:08.225Z,1.50
2022-12-26T21:01:37.512Z,1.50
2022-12-26T21:04:04.690Z,1.40
2022-12-26T21:06:36.907Z,1.40
2022-12-26T21:09:06.324Z,1.40
2022-12-26T21:11:38.078Z,1.40
2022-12-26T21:14:16.534Z,1.40
2022-12-26T21:16:48.369Z,1.30
2022-12-26T21:19:16.865Z,1.20
2022-12-26T21:21:47.592Z,1.20
2022-12-26T21:24:19.620Z,1.10
2022-12-26T21:26:48.480Z,1.00
2022-12-26T21:29:20.279Z,1.00
2022-12-26T21:31:48.429Z,0.90
2022-12-26T21:34:18.793Z,0.90
2022-12-26T21:37:06.579Z,0.80
2022-12-26T21:39:35.059Z,0.90
2022-12-26T21:42:02.344Z,0.80
2022-12-26T21:44:29.442Z,0.80
2022-12-26T21:46:57.572Z,0.80
2022-12-26T21:49:24.450Z,0.80
2022-12-26T21:51:51.179Z,0.80
2022-12-26T21:54:50.842Z,0.70
2022-12-26T21:57:19.252Z,0.70
2022-12-26T21:59:59.497Z,0.60
2022-12-26T22:02:56.758Z,0.60
2022-12-26T22:05:27.571Z,0.60
2022-12-26T22:08:00.644Z,0.50
2022-12-26T22:10:50.462Z,0.40
2022-12-26T22:13:19.007Z,0.40
2022-12-26T22:16:06.823Z,0.40
2022-12-26T22:18:43.847Z,0.30
2022-12-26T22:21:20.589Z,0.30
2022-12-26T22:23:50.514Z,0.30
2022-12-26T22:26:19.150Z,0.30
2022-12-26T22:28:46.007Z,0.30
2022-12-26T22:31:23.785Z,0.30
2022-12-26T22:34:10.618Z,0.30
2022-12-26T22:36:37.420Z,0.30
2022-12-26T22:39:04.934Z,0.30
2022-12-26T22:41:33.556Z,0.30
2022-12-26T22:44:00.451Z,0.30
2022-12-26T22:46:27.319Z,0.30
2022-12-26T22:48:54.066Z,0.30
2022-12-26T22:51:24.243Z,0.20
2022-12-26T22:53:55.268Z,0.20
2022-12-26T22:56:22.146Z,0.20
2022-12-26T22:58:54.263Z,0.20
2022-12-26T23:01:22.509Z,0.20
2022-12-26T23:03:49.742Z,0.30
2022-12-26T23:06:23.307Z,0.30
2022-12-26T23:08:54.274Z,0.40
2022-12-26T23:11:22.039Z,0.40
2022-12-26T23:13:49.737Z,0.30
2022-12-26T23:16:44.091Z,0.40
2022-12-26T23:19:36.472Z,0.40
2022-12-26T23:22:04.861Z,0.40
2022-12-26T23:24:33.589Z,0.50
2022-12-26T23:27:24.872Z,0.50
2022-12-26T23:30:11.252Z,0.40
2022-12-26T23:32:41.143Z,0.40
2022-12-26T23:35:09.983Z,0.30
2022-12-26T23:37:38.877Z,0.20
2022-12-26T23:40:08.332Z,0.20
2022-12-26T23:42:35.169Z,0.20
2022-12-26T23:45:02.087Z,0.20
2022-12-26T23:47:29.074Z,0.10
2022-12-26T23:49:55.851Z,0.10
2022-12-26T23:52:28.312Z,0.00
2022-12-26T23:54:57.521Z,0.00
2022-12-26T23:57:24.654Z,0.10
2022-12-26T23:59:51.577Z,0.20
